Lacey Spring, Virginia
Current Conditions -  °F | °C
As of 5:15 AM on Wednesday 26 Nov 2014 (Local Time) from K8W2 Reporting Station
Overcast Overcast  
Wind Chill: 32°   Ceiling: 3000
Heat Index: 39°   Visibility: 5mi
Dew Point: 35°   Wind: 9mph
Humidity: 86%   Direction: 40°NE
Pressure: 30.05"   Gusts: NA
Location:  38.54°N, 78.77°W
Report Text: K8W2 261015Z AUTO 04008KT 5SM OVC030 04/02 A3005 RMK AO1 P0002 T00370016
Loading
Personal Weather Stations






























Interactive Weather Map New forecast layout! Learn more

10-Day Weather Forecast

Advertisements
Track Severe Weather on mobile